Time;durP1;ratioP1;P1;durP2;ratioP2;P2;SDS_P1;SDS_P2;PMS_P1;PMS_P2;Temp;Humidity;BMP_temperature;BMP_pressure;BME280_temperature;BME280_humidity;BME280_pressure;Samples;Min_cycle;Max_cycle;Signal;HPM_P1;HPM_P2
2021/07/16 00:00:11;;;;;;;4.10;3.22;;;;;;;27.25;38.02;94390.06;2964350;40;20045;-70
2021/07/16 00:02:13;;;;;;;10.13;3.17;;;;;;;27.23;37.67;94390.34;2961804;40;20081;-70
2021/07/16 00:04:15;;;;;;;5.22;3.00;;;;;;;27.14;37.93;94391.94;2968270;40;20067;-69
2021/07/16 00:06:17;;;;;;;3.88;3.00;;;;;;;27.09;37.87;94387.38;2965619;40;20053;-69
2021/07/16 00:08:19;;;;;;;8.93;3.00;;;;;;;27.13;38.00;94388.44;2965089;40;20056;-80
2021/07/16 00:10:21;;;;;;;6.47;2.75;;;;;;;27.20;37.92;94385.47;2968530;40;20420;-80
2021/07/16 00:12:23;;;;;;;6.35;2.90;;;;;;;27.28;37.61;94381.47;2969308;40;20125;-82
2021/07/16 00:14:25;;;;;;;3.70;2.72;;;;;;;27.33;37.84;94382.25;2965181;40;20067;-82
2021/07/16 00:16:26;;;;;;;3.72;2.70;;;;;;;27.35;37.25;94369.34;2969221;40;20181;-80
2021/07/16 00:18:28;;;;;;;5.53;3.25;;;;;;;27.33;37.71;94366.13;2968198;40;20165;-82
2021/07/16 00:20:30;;;;;;;5.65;3.47;;;;;;;27.35;38.68;94358.59;2968551;40;20080;-83
2021/07/16 00:22:32;;;;;;;4.78;3.50;;;;;;;27.35;38.61;94349.72;2968610;40;20060;-81
2021/07/16 00:24:34;;;;;;;5.40;3.65;;;;;;;27.34;39.24;94343.53;2959184;40;20105;-82
2021/07/16 00:26:36;;;;;;;5.90;3.72;;;;;;;27.36;39.85;94337.88;2953534;40;20103;-81
2021/07/16 00:28:38;;;;;;;5.45;4.25;;;;;;;27.34;39.83;94340.84;2967630;40;20072;-83
2021/07/16 00:30:39;;;;;;;5.15;3.72;;;;;;;27.31;39.75;94333.31;2965410;40;20100;-81
2021/07/16 00:32:41;;;;;;;7.40;3.90;;;;;;;27.28;39.16;94336.56;2972492;40;20041;-80
2021/07/16 00:34:43;;;;;;;5.47;3.33;;;;;;;27.25;39.41;94334.41;2973766;40;20051;-81
2021/07/16 00:36:44;;;;;;;7.88;4.50;;;;;;;27.24;40.68;94334.69;2971805;40;20393;-80
2021/07/16 00:38:46;;;;;;;6.50;5.22;;;;;;;27.17;41.82;94340.31;2970325;40;20068;-82
2021/07/16 00:40:48;;;;;;;7.57;5.07;;;;;;;27.15;42.17;94340.59;2967554;40;20413;-81
2021/07/16 00:42:50;;;;;;;8.57;5.30;;;;;;;27.09;42.47;94348.94;2967527;40;20052;-82
2021/07/16 00:44:51;;;;;;;6.82;4.90;;;;;;;27.06;41.99;94352.97;2966902;40;20381;-81
2021/07/16 00:46:53;;;;;;;8.15;4.80;;;;;;;27.03;42.72;94366.16;2967512;40;20423;-82
2021/07/16 00:48:55;;;;;;;6.20;5.03;;;;;;;26.84;43.38;94376.63;2960182;40;20041;-81
2021/07/16 00:50:57;;;;;;;8.13;5.38;;;;;;;26.67;44.18;94375.03;2963607;40;20118;-81
2021/07/16 00:52:59;;;;;;;11.13;5.80;;;;;;;26.48;44.78;94382.75;2969481;40;20419;-81
2021/07/16 00:55:01;;;;;;;9.63;5.27;;;;;;;26.35;45.52;94378.72;2967843;40;20137;-81
2021/07/16 00:57:06;;;;;;;7.90;5.30;;;;;;;26.24;45.81;94368.19;2957117;40;20308;-82
2021/07/16 00:59:09;;;;;;;9.02;5.78;;;;;;;26.24;45.82;94363.66;2959704;40;20069;-82
2021/07/16 01:03:31;;;;;;;11.32;6.00;;;;;;;26.02;46.56;94374.56;2966974;40;20360;-81
2021/07/16 01:05:34;;;;;;;8.88;6.32;;;;;;;25.79;47.67;94377.69;2968581;40;20137;-81
2021/07/16 01:07:37;;;;;;;7.60;6.15;;;;;;;25.56;47.81;94382.41;2970257;40;20066;-83
2021/07/16 01:09:39;;;;;;;10.82;6.18;;;;;;;25.54;48.09;94384.53;2967048;40;20120;-80
2021/07/16 01:11:41;;;;;;;11.40;5.78;;;;;;;25.63;47.84;94382.16;2965741;40;20072;-83
2021/07/16 01:13:43;;;;;;;10.10;6.00;;;;;;;25.09;49.18;94372.44;2962488;40;20064;-81
2021/07/16 01:15:45;;;;;;;13.97;6.17;;;;;;;25.09;49.44;94372.44;2961348;40;20093;-83
2021/07/16 01:17:47;;;;;;;13.15;6.50;;;;;;;25.09;49.56;94372.44;2965471;40;20055;-84
2021/07/16 01:19:59;;;;;;;8.57;5.65;;;;;;;25.18;49.35;94368.22;2969573;40;20072;-81
2021/07/16 01:22:02;;;;;;;11.35;6.05;;;;;;;25.22;49.31;94365.84;2959721;40;20049;-85
2021/07/16 01:24:06;;;;;;;9.67;5.73;;;;;;;25.33;48.59;94364.84;2958831;40;20056;-83
2021/07/16 01:26:08;;;;;;;12.95;5.45;;;;;;;25.49;48.45;94366.56;2969026;40;20386;-80
2021/07/16 01:28:10;;;;;;;10.48;5.75;;;;;;;25.54;48.30;94358.53;2967733;40;20407;-80
2021/07/16 01:30:13;;;;;;;12.73;5.70;;;;;;;25.58;48.00;94364.19;2960781;40;20152;-83
2021/07/16 01:32:16;;;;;;;10.50;6.22;;;;;;;25.64;47.86;94360.47;2957677;40;20529;-81
2021/07/16 01:34:19;;;;;;;9.85;5.72;;;;;;;25.66;47.78;94357.50;2967400;40;20639;-80
2021/07/16 01:36:20;;;;;;;7.00;5.70;;;;;;;25.66;48.01;94352.97;2967864;40;20211;-81
2021/07/16 01:38:22;;;;;;;7.68;5.38;;;;;;;25.67;47.88;94346.50;2956595;40;20067;-81
2021/07/16 01:40:26;;;;;;;11.82;5.90;;;;;;;25.71;47.45;94336.88;2966575;40;20044;-81
2021/07/16 01:42:35;;;;;;;12.35;5.68;;;;;;;25.73;47.57;94339.31;2967532;40;20060;-70
2021/07/16 01:44:41;;;;;;;10.32;6.18;;;;;;;25.77;47.63;94340.41;2963662;40;20055;-70
2021/07/16 01:46:43;;;;;;;8.25;5.30;;;;;;;25.79;47.26;94337.44;2970911;40;20136;-70
2021/07/16 01:48:45;;;;;;;10.18;5.60;;;;;;;25.80;47.39;94345.22;2967639;40;20343;-70
2021/07/16 01:50:49;;;;;;;12.45;5.65;;;;;;;25.82;47.21;94342.28;2963280;40;20143;-69
2021/07/16 01:52:51;;;;;;;11.60;5.60;;;;;;;25.79;47.07;94335.56;2960514;40;20044;-69
2021/07/16 01:54:53;;;;;;;7.78;5.70;;;;;;;25.79;47.09;94337.44;2967851;40;20078;-70
2021/07/16 01:56:55;;;;;;;10.00;4.97;;;;;;;25.74;47.30;94341.69;2968193;40;20063;-68
2021/07/16 01:58:57;;;;;;;7.57;5.20;;;;;;;25.75;47.22;94346.00;2968457;40;20092;-68
2021/07/16 02:00:59;;;;;;;10.32;6.07;;;;;;;25.74;47.17;94343.59;2961497;40;20089;-69
2021/07/16 02:03:03;;;;;;;11.65;5.32;;;;;;;25.69;47.24;94346.25;2963177;40;20060;-68
2021/07/16 02:05:06;;;;;;;7.95;5.32;;;;;;;25.41;47.92;94352.84;2957508;40;20045;-69
2021/07/16 02:07:08;;;;;;;9.07;5.40;;;;;;;24.68;50.09;94348.03;2959810;40;20041;-70
2021/07/16 02:09:10;;;;;;;10.10;5.55;;;;;;;24.30;51.09;94347.13;2966967;40;20156;-70
2021/07/16 02:11:12;;;;;;;9.68;5.60;;;;;;;24.42;51.15;94345.09;2971242;40;20478;-69
2021/07/16 02:13:14;;;;;;;10.88;5.65;;;;;;;24.60;50.34;94346.59;2964456;40;20126;-69
2021/07/16 02:15:18;;;;;;;11.27;5.45;;;;;;;24.73;49.88;94348.84;2960952;40;20060;-70
2021/07/16 02:17:20;;;;;;;10.00;5.65;;;;;;;24.89;49.59;94339.06;2964633;40;20152;-71
2021/07/16 02:19:21;;;;;;;11.48;5.60;;;;;;;25.00;49.23;94345.31;2970005;40;20157;-82
2021/07/16 02:21:23;;;;;;;8.75;5.45;;;;;;;25.07;48.89;94331.69;2965899;40;20049;-82
2021/07/16 02:23:27;;;;;;;8.15;5.80;;;;;;;25.09;49.04;94325.00;2962224;40;20064;-82
2021/07/16 02:25:28;;;;;;;;;;;;;;;25.17;48.89;94328.25;2960290;40;20474;-81
2021/07/16 02:27:32;;;;;;;10.13;5.18;;;;;;;25.21;48.63;94324.84;2970172;40;19936;-80
2021/07/16 02:29:34;;;;;;;;;;;;;;;25.23;48.68;94321.88;2969453;40;20263;-81
2021/07/16 02:31:35;;;;;;;10.80;6.13;;;;;;;25.27;48.28;94325.66;2958352;40;19944;-81
2021/07/16 02:33:38;;;;;;;9.82;5.30;;;;;;;25.28;48.28;94321.94;2966922;40;20048;-80
2021/07/16 02:35:40;;;;;;;12.48;5.50;;;;;;;25.37;47.68;94330.28;2972235;40;20091;-79
2021/07/16 02:37:42;;;;;;;9.25;5.82;;;;;;;25.41;47.62;94323.34;2963438;40;20072;-82
2021/07/16 02:39:44;;;;;;;8.75;4.65;;;;;;;25.43;47.56;94321.22;2966516;40;20055;-82
2021/07/16 02:41:45;;;;;;;8.57;5.03;;;;;;;25.48;47.68;94324.69;2969870;40;20133;-80
2021/07/16 02:43:48;;;;;;;12.32;5.53;;;;;;;25.53;47.48;94326.59;2968485;40;20067;-81
2021/07/16 02:45:51;;;;;;;6.80;5.55;;;;;;;25.57;47.27;94324.22;2974921;40;20089;-82
2021/07/16 02:47:53;;;;;;;8.10;4.90;;;;;;;25.61;47.25;94327.97;2965997;40;20056;-80
2021/07/16 02:49:55;;;;;;;11.97;5.93;;;;;;;25.47;47.46;94333.81;2972155;40;20088;-81
2021/07/16 02:51:57;;;;;;;9.82;5.30;;;;;;;25.28;47.83;94333.47;2973456;40;20428;-69
2021/07/16 02:53:59;;;;;;;7.38;5.20;;;;;;;25.07;48.04;94329.00;2966396;40;20057;-68
2021/07/16 02:56:01;;;;;;;7.95;5.13;;;;;;;24.90;49.07;94339.88;2967858;40;20355;-69
2021/07/16 02:58:04;;;;;;;8.20;5.40;;;;;;;24.63;49.63;94335.41;2973171;40;20133;-69
2021/07/16 03:00:10;;;;;;;9.77;5.27;;;;;;;24.60;49.63;94341.25;2960463;40;20067;-71
2021/07/16 03:02:12;;;;;;;10.30;5.95;;;;;;;24.51;50.17;94342.78;2967581;40;20048;-68
2021/07/16 03:04:14;;;;;;;9.70;5.78;;;;;;;24.53;50.25;94332.63;2959499;40;20056;-69
2021/07/16 03:06:16;;;;;;;9.30;6.10;;;;;;;24.50;50.59;94327.78;2965375;40;20085;-70
2021/07/16 03:08:18;;;;;;;11.30;5.82;;;;;;;24.52;50.72;94331.84;2969483;40;20096;-69
2021/07/16 03:10:22;;;;;;;9.70;5.50;;;;;;;24.56;50.61;94337.47;2954355;40;20151;-69
2021/07/16 03:12:24;;;;;;;9.45;6.25;;;;;;;24.61;50.23;94328.66;2963785;40;20081;-70
2021/07/16 03:14:25;;;;;;;9.55;5.32;;;;;;;24.68;50.31;94329.28;2968502;40;20189;-69
2021/07/16 03:16:27;;;;;;;10.32;5.65;;;;;;;24.79;50.05;94336.31;2967564;40;20437;-69
2021/07/16 03:18:29;;;;;;;7.63;6.15;;;;;;;24.71;50.00;94336.78;2963706;40;20068;-68
2021/07/16 03:20:34;;;;;;;8.75;5.35;;;;;;;24.70;49.56;94346.69;2969047;40;20409;-69
2021/07/16 03:22:36;;;;;;;9.18;5.40;;;;;;;24.75;49.71;94339.78;2970901;40;20129;-71
2021/07/16 03:24:37;;;;;;;7.57;5.82;;;;;;;24.85;49.13;94347.88;2966669;40;20096;-68
2021/07/16 03:26:39;;;;;;;7.97;5.32;;;;;;;24.97;48.69;94351.16;2965266;40;20068;-69
2021/07/16 03:28:41;;;;;;;9.18;5.20;;;;;;;25.01;48.23;94354.97;2957686;40;20134;-70
2021/07/16 03:30:43;;;;;;;9.23;5.72;;;;;;;24.96;48.94;94354.13;2964748;40;20048;-70
2021/07/16 03:32:45;;;;;;;11.57;5.63;;;;;;;24.86;49.12;94357.53;2966682;40;20080;-68
2021/07/16 03:34:46;;;;;;;12.73;5.63;;;;;;;24.87;49.49;94354.59;2966614;40;20144;-69
2021/07/16 03:36:48;;;;;;;13.07;6.22;;;;;;;24.88;49.73;94355.41;2964795;40;20060;-68
2021/07/16 03:38:52;;;;;;;13.00;6.50;;;;;;;24.86;49.83;94357.53;2966791;40;20493;-69
2021/07/16 03:40:56;;;;;;;8.80;5.57;;;;;;;24.90;50.05;94351.41;2964298;40;20067;-68
2021/07/16 03:43:00;;;;;;;8.73;6.28;;;;;;;24.95;49.99;94355.97;2967165;40;20076;-70
2021/07/16 03:45:12;;;;;;;10.55;6.03;;;;;;;24.95;49.66;94355.97;2967295;40;20109;-69
2021/07/16 03:47:14;;;;;;;13.75;7.00;;;;;;;25.00;49.78;94357.91;2965753;40;20116;-69
2021/07/16 03:49:16;;;;;;;14.87;6.90;;;;;;;25.06;49.30;94362.22;2962743;40;20417;-70
2021/07/16 03:51:18;;;;;;;10.18;6.32;;;;;;;25.13;49.42;94357.47;2967165;40;20048;-70
2021/07/16 03:53:19;;;;;;;10.60;6.20;;;;;;;25.17;49.18;94357.72;2970924;40;20419;-69
2021/07/16 03:55:21;;;;;;;12.88;6.80;;;;;;;25.20;49.13;94350.03;2969078;40;20056;-69
2021/07/16 03:57:23;;;;;;;13.77;6.50;;;;;;;25.11;49.40;94351.56;2972762;40;20056;-70
2021/07/16 03:59:25;;;;;;;12.40;7.03;;;;;;;24.86;50.42;94354.84;2967155;40;20403;-69
2021/07/16 04:01:26;;;;;;;13.25;7.18;;;;;;;24.85;50.49;94348.69;2969787;40;20068;-70
2021/07/16 04:03:47;;;;;;;16.35;7.25;;;;;;;24.78;50.64;94353.47;2956463;40;20082;-69
2021/07/16 04:05:49;;;;;;;12.48;6.95;;;;;;;24.55;50.85;94351.13;2963948;40;20597;-68
2021/07/16 04:07:53;;;;;;;8.55;6.10;;;;;;;24.07;52.03;94356.25;2969229;40;20052;-69
2021/07/16 04:09:55;;;;;;;13.70;6.55;;;;;;;23.77;52.99;94354.03;2957783;40;20167;-71
2021/07/16 04:12:07;;;;;;;10.25;6.00;;;;;;;23.28;53.98;94366.22;2967272;40;20391;-70
2021/07/16 04:14:09;;;;;;;9.77;6.10;;;;;;;23.21;54.12;94365.59;2966102;40;20053;-71
2021/07/16 04:16:11;;;;;;;13.95;5.75;;;;;;;23.22;54.01;94356.53;2961223;40;20412;-68
2021/07/16 04:18:13;;;;;;;10.88;6.22;;;;;;;23.23;54.17;94355.47;2966871;40;20049;-70
2021/07/16 04:20:14;;;;;;;14.32;6.93;;;;;;;23.15;55.01;94355.09;2961234;40;20351;-70
2021/07/16 04:22:21;;;;;;;10.98;7.03;;;;;;;23.42;54.19;94357.84;2960877;40;20453;-69
2021/07/16 04:24:23;;;;;;;14.60;6.70;;;;;;;23.74;53.48;94349.97;2963682;40;20037;-73
2021/07/16 04:26:25;;;;;;;14.15;7.20;;;;;;;23.89;52.68;94352.03;2964587;40;20432;-69
2021/07/16 04:28:26;;;;;;;12.30;6.57;;;;;;;24.05;52.46;94348.47;2964892;40;20075;-70
2021/07/16 04:30:29;;;;;;;11.43;6.20;;;;;;;24.11;51.96;94350.16;2968876;40;20417;-70
2021/07/16 04:32:31;;;;;;;10.82;6.10;;;;;;;24.11;51.98;94349.31;2960687;40;20056;-70
2021/07/16 04:34:35;;;;;;;9.18;5.53;;;;;;;24.03;51.73;94355.94;2966603;40;20414;-69
2021/07/16 04:36:37;;;;;;;11.15;6.32;;;;;;;23.91;52.33;94352.59;2957953;40;20057;-69
2021/07/16 04:38:40;;;;;;;9.82;5.88;;;;;;;24.00;52.54;94355.63;2966647;40;20052;-69
2021/07/16 04:40:41;;;;;;;16.27;6.43;;;;;;;23.87;53.08;94352.28;2957246;40;20076;-68
2021/07/16 04:42:45;;;;;;;8.75;6.38;;;;;;;24.05;52.57;94348.47;2967199;40;20420;-72
2021/07/16 04:44:46;;;;;;;17.88;6.63;;;;;;;24.10;52.30;94353.88;2965180;40;20050;-68
2021/07/16 04:46:49;;;;;;;10.43;6.30;;;;;;;24.32;51.51;94355.69;2964701;40;20068;-70
2021/07/16 04:48:57;;;;;;;14.80;6.13;;;;;;;24.32;50.74;94355.69;2964393;40;20123;-70
2021/07/16 04:50:59;;;;;;;14.00;6.18;;;;;;;24.36;50.41;94356.81;2958189;40;20327;-68
2021/07/16 04:53:01;;;;;;;16.00;6.10;;;;;;;24.57;49.53;94349.81;2969115;40;20389;-69
2021/07/16 04:55:03;;;;;;;11.90;6.60;;;;;;;24.77;49.74;94348.34;2966517;40;20068;-70
2021/07/16 04:57:06;;;;;;;9.00;5.78;;;;;;;25.02;49.38;94347.75;2968795;40;20060;-70
2021/07/16 04:59:07;;;;;;;9.18;5.65;;;;;;;25.13;48.22;94346.75;2964309;40;20053;-71
2021/07/16 05:01:09;;;;;;;11.48;5.60;;;;;;;25.08;48.26;94347.53;2969171;40;20359;-69
2021/07/16 05:03:11;;;;;;;7.68;6.18;;;;;;;25.00;48.35;94342.63;2969120;40;20036;-69
2021/07/16 05:05:13;;;;;;;13.95;6.32;;;;;;;25.03;48.26;94346.66;2965322;40;20409;-71
2021/07/16 05:07:17;;;;;;;11.02;6.43;;;;;;;25.14;48.15;94340.31;2959426;40;20066;-83
2021/07/16 05:09:19;;;;;;;11.27;5.32;;;;;;;25.26;47.08;94346.31;2969558;40;20106;-81
2021/07/16 05:11:21;;;;;;;10.98;5.88;;;;;;;25.44;46.90;94347.75;2966809;40;20471;-81
2021/07/16 05:13:25;;;;;;;8.98;5.50;;;;;;;25.64;46.71;94344.38;2966213;40;20417;-82
2021/07/16 05:15:27;;;;;;;9.38;5.43;;;;;;;25.79;46.04;94340.94;2963508;40;20048;-82
2021/07/16 05:17:29;;;;;;;10.23;5.15;;;;;;;25.93;45.13;94339.38;2967444;40;20052;-83
2021/07/16 05:19:30;;;;;;;9.00;4.72;;;;;;;25.83;44.81;94343.88;2968074;40;20076;-83
2021/07/16 05:21:33;;;;;;;8.75;5.70;;;;;;;25.75;45.18;94337.97;2968413;40;20051;-80
2021/07/16 05:23:34;;;;;;;10.85;5.78;;;;;;;25.83;45.43;94333.16;2970932;40;20060;-84
2021/07/16 05:25:36;;;;;;;13.77;5.70;;;;;;;25.99;45.41;94328.69;2975058;40;20051;-81
2021/07/16 05:27:39;;;;;;;7.05;5.20;;;;;;;26.17;44.84;94330.88;2966275;40;20141;-86
2021/07/16 05:29:41;;;;;;;9.88;5.43;;;;;;;26.38;44.66;94326.34;2968335;40;20067;-83
2021/07/16 05:31:43;;;;;;;11.02;5.47;;;;;;;26.49;43.86;94319.91;2973092;40;20144;-83
2021/07/16 05:33:45;;;;;;;11.97;5.40;;;;;;;26.62;43.56;94317.78;2967561;40;20055;-81
2021/07/16 05:35:47;;;;;;;7.22;4.93;;;;;;;26.70;42.97;94317.25;2958677;40;20344;-83
2021/07/16 05:37:49;;;;;;;7.18;4.45;;;;;;;26.56;42.77;94308.91;2972629;40;20056;-84
2021/07/16 05:39:51;;;;;;;12.45;5.25;;;;;;;26.24;43.57;94315.31;2967436;40;20395;-82
2021/07/16 05:41:53;;;;;;;10.10;5.00;;;;;;;26.23;43.47;94321.75;2966435;40;20052;-83
2021/07/16 05:43:55;;;;;;;7.93;4.63;;;;;;;26.31;43.36;94323.13;2967711;40;20308;-81
2021/07/16 05:45:57;;;;;;;9.05;4.45;;;;;;;26.44;43.44;94314.53;2970859;40;20380;-85
2021/07/16 05:48:00;;;;;;;11.35;4.57;;;;;;;26.58;42.86;94311.34;2963980;40;20056;-85
2021/07/16 05:50:02;;;;;;;10.25;4.85;;;;;;;26.69;43.15;94321.00;2968341;40;20072;-85
2021/07/16 05:52:04;;;;;;;8.15;4.30;;;;;;;26.76;42.87;94311.59;2969517;40;20093;-83
2021/07/16 05:54:06;;;;;;;9.63;4.68;;;;;;;26.70;42.87;94326.13;2967344;40;20048;-84
2021/07/16 05:56:08;;;;;;;9.90;4.50;;;;;;;26.77;42.80;94315.09;2971388;40;20056;-84
2021/07/16 05:58:10;;;;;;;6.95;4.47;;;;;;;26.24;42.97;94330.59;2968129;40;20060;-82
2021/07/16 06:00:12;;;;;;;10.48;4.50;;;;;;;26.02;43.64;94334.31;2968161;40;20068;-85
2021/07/16 06:02:14;;;;;;;9.15;4.28;;;;;;;25.80;44.10;94331.00;2966749;40;20079;-83
2021/07/16 06:04:16;;;;;;;7.07;4.18;;;;;;;25.60;44.44;94329.88;2967363;40;20153;-83
2021/07/16 06:06:17;;;;;;;7.38;3.92;;;;;;;25.40;45.25;94337.78;2969682;40;20351;-69
2021/07/16 06:08:19;;;;;;;6.80;4.32;;;;;;;25.56;44.78;94325.28;2966214;40;20059;-71
2021/07/16 06:10:21;;;;;;;7.38;3.70;;;;;;;25.30;45.39;94328.63;2965943;40;20065;-70
2021/07/16 06:12:23;;;;;;;6.35;4.05;;;;;;;25.33;45.48;94324.63;2964568;40;20120;-70
2021/07/16 06:14:24;;;;;;;7.13;4.15;;;;;;;25.70;45.38;94318.34;2970650;40;20085;-69
2021/07/16 06:16:26;;;;;;;6.88;3.38;;;;;;;25.62;45.11;94313.50;2966852;40;20137;-69
2021/07/16 06:18:28;;;;;;;13.02;3.78;;;;;;;25.52;45.44;94312.38;2968642;40;20075;-68
2021/07/16 06:20:30;;;;;;;6.85;4.15;;;;;;;25.79;45.08;94305.22;2967532;40;20449;-69
2021/07/16 06:22:32;;;;;;;8.65;4.38;;;;;;;26.06;44.28;94305.06;2968797;40;20140;-70
2021/07/16 06:24:34;;;;;;;11.80;4.05;;;;;;;26.15;43.74;94300.78;2959513;40;20149;-70
2021/07/16 06:26:36;;;;;;;8.73;4.03;;;;;;;26.18;43.79;94302.13;2965941;40;20048;-69
2021/07/16 06:28:37;;;;;;;12.00;4.00;;;;;;;26.30;44.02;94300.00;2966462;40;20132;-70
2021/07/16 06:30:39;;;;;;;7.03;4.00;;;;;;;26.47;43.80;94297.06;2959645;40;20146;-70
2021/07/16 06:32:41;;;;;;;6.15;3.80;;;;;;;26.63;43.52;94300.59;2963760;40;20460;-70
2021/07/16 06:34:43;;;;;;;9.45;3.28;;;;;;;26.79;43.35;94288.75;2964562;40;20074;-70
2021/07/16 06:36:45;;;;;;;5.72;2.97;;;;;;;26.97;42.80;94282.00;2965399;40;20165;-71
2021/07/16 06:38:47;;;;;;;7.45;4.05;;;;;;;27.03;42.77;94282.81;2966685;40;20056;-69
2021/07/16 06:40:50;;;;;;;9.23;5.03;;;;;;;27.15;42.17;94286.81;2962491;40;20072;-70
2021/07/16 06:42:51;;;;;;;15.63;5.95;;;;;;;27.26;42.02;94282.25;2966137;40;20128;-70
2021/07/16 06:44:53;;;;;;;9.32;4.05;;;;;;;27.33;42.21;94274.69;2958402;40;20407;-71
2021/07/16 06:46:55;;;;;;;8.50;4.32;;;;;;;27.35;41.71;94277.91;2966497;40;20160;-70
2021/07/16 06:48:57;;;;;;;4.88;3.20;;;;;;;27.33;41.69;94276.56;2967494;40;20053;-69
2021/07/16 06:50:59;;;;;;;6.60;3.78;;;;;;;27.45;41.19;94271.69;2970988;40;20100;-85
2021/07/16 06:53:00;;;;;;;11.93;3.28;;;;;;;27.36;40.72;94279.53;2969463;40;20094;-83
2021/07/16 06:55:03;;;;;;;9.57;3.22;;;;;;;27.42;41.03;94266.06;2968088;40;20053;-84
2021/07/16 06:57:05;;;;;;;11.40;3.40;;;;;;;27.62;41.03;94271.38;2971530;40;20084;-82
2021/07/16 06:59:08;;;;;;;8.82;3.20;;;;;;;27.70;40.75;94270.75;2969706;40;20052;-86
2021/07/16 07:01:10;;;;;;;7.13;3.85;;;;;;;27.74;40.87;94271.81;2969221;40;20148;-87
2021/07/16 07:03:12;;;;;;;11.18;3.60;;;;;;;27.84;40.75;94267.50;2968594;40;20053;-85
2021/07/16 07:05:32;;;;;;;11.82;3.20;;;;;;;27.91;40.16;94268.81;2970026;40;20044;-84
2021/07/16 07:07:34;;;;;;;7.32;3.33;;;;;;;28.12;39.89;94266.78;2966451;40;20073;-81
2021/07/16 07:09:36;;;;;;;5.75;3.78;;;;;;;28.12;39.94;94269.50;2969831;40;20129;-84
2021/07/16 07:11:38;;;;;;;10.38;3.67;;;;;;;28.23;40.12;94259.44;2970739;40;20067;-84
2021/07/16 07:13:40;;;;;;;7.68;3.78;;;;;;;28.24;39.78;94261.03;2969336;40;20052;-84
2021/07/16 07:15:41;;;;;;;9.00;4.70;;;;;;;28.42;39.59;94259.59;2963881;40;20163;-81
2021/07/16 07:17:44;;;;;;;9.85;3.60;;;;;;;28.19;39.61;94256.50;2970828;40;20067;-83
2021/07/16 07:19:45;;;;;;;7.43;3.03;;;;;;;28.28;39.55;94253.22;2973239;40;20065;-82
2021/07/16 07:21:47;;;;;;;7.25;3.60;;;;;;;28.09;40.21;94253.91;2974443;40;20056;-82
2021/07/16 07:23:49;;;;;;;5.65;3.25;;;;;;;28.00;39.79;94246.69;2968667;40;20052;-83
2021/07/16 07:25:51;;;;;;;10.63;3.55;;;;;;;28.18;39.81;94252.22;2969911;40;20052;-84
2021/07/16 07:27:53;;;;;;;6.00;3.50;;;;;;;28.40;39.20;94245.59;2968549;40;20053;-83
2021/07/16 07:29:58;;;;;;;7.45;3.53;;;;;;;28.62;38.87;94238.97;2967683;40;20055;-70
2021/07/16 07:32:00;;;;;;;8.50;3.88;;;;;;;28.85;39.00;94238.22;2965872;40;20137;-69
2021/07/16 07:34:02;;;;;;;5.85;3.58;;;;;;;29.01;38.48;94246.94;2966162;40;20174;-70
2021/07/16 07:36:04;;;;;;;5.53;3.28;;;;;;;29.19;38.38;94246.25;2969063;40;20055;-69
2021/07/16 07:38:06;;;;;;;8.50;4.97;;;;;;;29.35;37.82;94252.25;2968051;40;20072;-69
2021/07/16 07:40:12;;;;;;;7.90;4.25;;;;;;;29.40;37.68;94254.91;2967506;40;20078;-72
2021/07/16 07:42:17;;;;;;;10.00;3.95;;;;;;;29.59;37.22;94246.81;2945730;40;20054;-71
2021/07/16 07:44:19;;;;;;;5.07;3.55;;;;;;;29.53;37.24;94247.19;2968311;40;20072;-69
2021/07/16 07:46:20;;;;;;;6.25;3.35;;;;;;;29.61;37.53;94250.03;2966627;40;20075;-70
2021/07/16 07:48:24;;;;;;;9.07;3.63;;;;;;;29.72;37.46;94250.75;2966326;40;20297;-83
2021/07/16 07:50:26;;;;;;;5.32;3.60;;;;;;;29.74;37.13;94245.84;2971930;40;20085;-83
2021/07/16 07:52:28;;;;;;;5.60;3.43;;;;;;;29.69;37.10;94245.13;2973912;40;20068;-81
2021/07/16 07:54:30;;;;;;;10.75;3.60;;;;;;;29.82;37.26;94241.72;2970801;40;20060;-82
2021/07/16 07:56:32;;;;;;;8.80;3.95;;;;;;;29.53;37.86;94249.88;2976331;40;20071;-82
2021/07/16 07:58:34;;;;;;;15.70;4.55;;;;;;;29.62;37.79;94250.88;2969182;40;20048;-84
2021/07/16 08:00:36;;;;;;;11.55;5.00;;;;;;;29.55;37.57;94247.69;2965724;40;20048;-84
2021/07/16 08:02:38;;;;;;;6.75;3.58;;;;;;;29.54;37.76;94244.22;2964017;40;20429;-81
2021/07/16 08:04:41;;;;;;;6.70;3.78;;;;;;;29.71;37.56;94238.34;2967776;40;20056;-83
2021/07/16 08:06:42;;;;;;;6.05;3.83;;;;;;;29.79;37.63;94245.81;2968940;40;20133;-83
2021/07/16 08:08:44;;;;;;;5.38;3.83;;;;;;;29.69;37.42;94240.53;2968465;40;20352;-83
2021/07/16 08:10:46;;;;;;;4.22;3.38;;;;;;;29.77;37.46;94244.47;2969420;40;20047;-84
2021/07/16 08:12:49;;;;;;;6.63;3.88;;;;;;;29.60;37.49;94243.06;2964737;40;20096;-83
2021/07/16 08:14:50;;;;;;;8.73;3.65;;;;;;;29.55;37.37;94235.00;2967270;40;20347;-83
2021/07/16 08:16:52;;;;;;;7.53;4.78;;;;;;;29.70;37.50;94247.53;2968289;40;20417;-83
2021/07/16 08:18:55;;;;;;;5.65;4.13;;;;;;;29.76;37.17;94240.19;2963323;40;20136;-83
2021/07/16 08:20:57;;;;;;;7.90;3.92;;;;;;;29.81;37.08;94242.78;2972005;40;20044;-84
2021/07/16 08:22:59;;;;;;;6.82;3.72;;;;;;;29.80;37.10;94247.41;2967391;40;20051;-85
2021/07/16 08:25:00;;;;;;;7.25;4.18;;;;;;;29.98;37.11;94245.78;2965877;40;20056;-84
2021/07/16 08:27:02;;;;;;;9.68;4.28;;;;;;;30.05;37.07;94242.75;2969129;40;20385;-84
2021/07/16 08:29:04;;;;;;;11.00;4.10;;;;;;;30.19;36.77;94240.91;2970571;40;20481;-83
2021/07/16 08:31:06;;;;;;;7.60;4.13;;;;;;;30.17;36.77;94242.28;2972302;40;20071;-83
2021/07/16 08:33:09;;;;;;;6.07;3.88;;;;;;;30.36;36.47;94240.41;2961025;40;20056;-84
2021/07/16 08:35:13;;;;;;;10.65;4.78;;;;;;;30.43;36.08;94231.91;2972522;40;20479;-84
2021/07/16 08:37:15;;;;;;;11.18;3.92;;;;;;;30.60;36.29;94234.06;2967187;40;20062;-82
2021/07/16 08:39:16;;;;;;;8.70;3.72;;;;;;;30.57;36.28;94237.38;2967710;40;20306;-84
2021/07/16 08:41:18;;;;;;;7.13;3.85;;;;;;;30.69;36.37;94226.88;2969831;40;20124;-84
2021/07/16 08:43:22;;;;;;;5.05;4.05;;;;;;;30.73;36.04;94232.50;2960194;40;20077;-82
2021/07/16 08:45:26;;;;;;;5.55;4.63;;;;;;;30.78;35.78;94224.28;2964046;40;20336;-86
2021/07/16 08:47:28;;;;;;;7.22;4.18;;;;;;;30.91;35.63;94230.84;2968017;40;20048;-82
2021/07/16 08:49:30;;;;;;;6.75;4.25;;;;;;;30.94;35.72;94228.38;2967733;40;20046;-82
2021/07/16 08:51:31;;;;;;;10.40;4.35;;;;;;;31.03;35.55;94223.84;2966493;40;20092;-69
2021/07/16 08:53:33;;;;;;;4.90;3.65;;;;;;;31.22;35.34;94225.69;2966549;40;20208;-71
2021/07/16 08:55:36;;;;;;;8.45;4.18;;;;;;;31.35;35.21;94227.56;2961991;40;20053;-70
2021/07/16 08:57:38;;;;;;;11.30;3.95;;;;;;;31.26;35.16;94220.47;2967279;40;20057;-71
2021/07/16 08:59:40;;;;;;;9.77;3.80;;;;;;;31.27;34.96;94216.66;2957322;40;20346;-69
2021/07/16 09:01:44;;;;;;;4.65;4.03;;;;;;;31.16;35.17;94218.75;2966855;40;20394;-71
2021/07/16 09:04:00;;;;;;;7.35;4.32;;;;;;;31.30;34.82;94216.03;2960601;40;20078;-70
2021/07/16 09:06:01;;;;;;;7.60;4.30;;;;;;;31.15;35.39;94214.47;2967321;40;20367;-72
2021/07/16 09:08:04;;;;;;;5.93;4.32;;;;;;;31.05;35.69;94212.75;2968442;40;20391;-70
2021/07/16 09:10:07;;;;;;;8.05;4.03;;;;;;;31.09;35.24;94208.34;2968472;40;20077;-71
2021/07/16 09:12:11;;;;;;;10.52;4.75;;;;;;;31.11;35.43;94208.06;2966517;40;20079;-71
2021/07/16 09:14:28;;;;;;;7.03;4.38;;;;;;;31.28;34.73;94204.72;2966724;40;20081;-71
2021/07/16 09:16:29;;;;;;;6.88;4.05;;;;;;;31.46;34.32;94209.25;2965927;40;20047;-73
2021/07/16 09:18:32;;;;;;;4.95;4.28;;;;;;;31.51;34.73;94201.03;2964496;40;20056;-71
2021/07/16 09:20:34;;;;;;;;;;;;;;;31.61;34.24;94203.50;2968646;40;20340;-71
2021/07/16 09:22:36;;;;;;;5.72;4.07;;;;;;;31.80;34.55;94205.31;2947410;40;20412;-69
2021/07/16 09:24:55;;;;;;;6.68;4.45;;;;;;;31.83;33.96;94210.09;2967596;40;20426;-70
2021/07/16 09:26:56;;;;;;;10.65;4.70;;;;;;;31.96;34.06;94203.03;2966630;40;20620;-69
2021/07/16 09:28:58;;;;;;;11.25;3.90;;;;;;;31.89;33.89;94199.97;2963181;40;20062;-70
2021/07/16 09:31:19;;;;;;;21.83;14.70;;;;;;;31.71;34.17;94205.22;2969294;40;20059;-71
2021/07/16 09:33:21;;;;;;;8.02;4.63;;;;;;;31.69;34.11;94201.22;2965270;40;20336;-71
2021/07/16 09:35:25;;;;;;;7.47;4.53;;;;;;;31.45;34.54;94209.56;2965766;40;20068;-70
2021/07/16 09:37:27;;;;;;;8.95;4.65;;;;;;;31.65;34.63;94201.00;2964255;40;20779;-70